sensor_id;sensor_type;location;lat;lon;timestamp;P1;durP1;ratioP1;P2;durP2;ratioP2
46651;SDS011;32377;52.182;5.398;2023-02-28T00:01:26;15.03;;;5.23;;
46651;SDS011;32377;52.182;5.398;2023-02-28T00:03:52;10.90;;;4.20;;
46651;SDS011;32377;52.182;5.398;2023-02-28T00:06:17;8.63;;;4.43;;
46651;SDS011;32377;52.182;5.398;2023-02-28T00:08:43;9.37;;;4.40;;
46651;SDS011;32377;52.182;5.398;2023-02-28T00:11:10;10.30;;;4.97;;
46651;SDS011;32377;52.182;5.398;2023-02-28T00:13:38;12.77;;;4.53;;
46651;SDS011;32377;52.182;5.398;2023-02-28T00:16:10;8.27;;;3.77;;
46651;SDS011;32377;52.182;5.398;2023-02-28T00:18:41;10.50;;;4.50;;
46651;SDS011;32377;52.182;5.398;2023-02-28T00:21:07;11.30;;;4.40;;
46651;SDS011;32377;52.182;5.398;2023-02-28T00:23:33;10.90;;;4.90;;
46651;SDS011;32377;52.182;5.398;2023-02-28T00:25:59;14.63;;;4.60;;
46651;SDS011;32377;52.182;5.398;2023-02-28T00:28:25;16.50;;;5.13;;
46651;SDS011;32377;52.182;5.398;2023-02-28T00:30:51;11.43;;;4.60;;
46651;SDS011;32377;52.182;5.398;2023-02-28T00:33:17;16.27;;;4.87;;
46651;SDS011;32377;52.182;5.398;2023-02-28T00:35:42;14.57;;;4.70;;
46651;SDS011;32377;52.182;5.398;2023-02-28T00:38:11;9.73;;;4.40;;
46651;SDS011;32377;52.182;5.398;2023-02-28T00:40:37;11.63;;;4.67;;
46651;SDS011;32377;52.182;5.398;2023-02-28T00:43:02;12.57;;;4.90;;
46651;SDS011;32377;52.182;5.398;2023-02-28T00:45:29;20.50;;;4.63;;
46651;SDS011;32377;52.182;5.398;2023-02-28T00:47:54;14.27;;;5.57;;
46651;SDS011;32377;52.182;5.398;2023-02-28T00:50:20;14.27;;;5.47;;
46651;SDS011;32377;52.182;5.398;2023-02-28T00:52:46;10.17;;;5.10;;
46651;SDS011;32377;52.182;5.398;2023-02-28T00:55:12;12.17;;;4.67;;
46651;SDS011;32377;52.182;5.398;2023-02-28T00:57:38;11.57;;;4.37;;
46651;SDS011;32377;52.182;5.398;2023-02-28T01:00:04;10.40;;;4.57;;
46651;SDS011;32377;52.182;5.398;2023-02-28T01:02:30;13.37;;;4.80;;
46651;SDS011;32377;52.182;5.398;2023-02-28T01:04:56;11.53;;;4.30;;
46651;SDS011;32377;52.182;5.398;2023-02-28T01:07:22;10.43;;;4.33;;
46651;SDS011;32377;52.182;5.398;2023-02-28T01:09:48;18.10;;;5.10;;
46651;SDS011;32377;52.182;5.398;2023-02-28T01:12:14;16.23;;;5.03;;
46651;SDS011;32377;52.182;5.398;2023-02-28T01:14:39;13.97;;;4.77;;
46651;SDS011;32377;52.182;5.398;2023-02-28T01:17:05;14.13;;;5.03;;
46651;SDS011;32377;52.182;5.398;2023-02-28T01:19:30;12.33;;;4.77;;
46651;SDS011;32377;52.182;5.398;2023-02-28T01:21:56;11.70;;;4.40;;
46651;SDS011;32377;52.182;5.398;2023-02-28T01:24:21;9.70;;;4.47;;
46651;SDS011;32377;52.182;5.398;2023-02-28T01:26:47;10.37;;;4.43;;
46651;SDS011;32377;52.182;5.398;2023-02-28T01:29:13;9.93;;;4.50;;
46651;SDS011;32377;52.182;5.398;2023-02-28T01:31:39;17.00;;;5.07;;
46651;SDS011;32377;52.182;5.398;2023-02-28T01:34:05;10.87;;;4.73;;
46651;SDS011;32377;52.182;5.398;2023-02-28T01:36:30;11.17;;;4.60;;
46651;SDS011;32377;52.182;5.398;2023-02-28T01:38:56;12.23;;;4.50;;
46651;SDS011;32377;52.182;5.398;2023-02-28T01:41:23;9.73;;;4.10;;
46651;SDS011;32377;52.182;5.398;2023-02-28T01:43:53;12.30;;;5.00;;
46651;SDS011;32377;52.182;5.398;2023-02-28T01:46:20;11.80;;;4.30;;
46651;SDS011;32377;52.182;5.398;2023-02-28T01:51:28;11.03;;;4.80;;
46651;SDS011;32377;52.182;5.398;2023-02-28T01:54:00;12.07;;;4.33;;
46651;SDS011;32377;52.182;5.398;2023-02-28T01:56:29;11.07;;;5.30;;
46651;SDS011;32377;52.182;5.398;2023-02-28T01:58:57;12.00;;;4.73;;
46651;SDS011;32377;52.182;5.398;2023-02-28T02:01:24;10.17;;;4.67;;
46651;SDS011;32377;52.182;5.398;2023-02-28T02:03:53;13.47;;;4.37;;
46651;SDS011;32377;52.182;5.398;2023-02-28T02:06:22;12.43;;;4.90;;
46651;SDS011;32377;52.182;5.398;2023-02-28T02:08:49;11.63;;;4.90;;
46651;SDS011;32377;52.182;5.398;2023-02-28T02:11:16;10.90;;;4.93;;
46651;SDS011;32377;52.182;5.398;2023-02-28T02:25:24;11.77;;;4.27;;
46651;SDS011;32377;52.182;5.398;2023-02-28T02:28:01;8.07;;;4.23;;
46651;SDS011;32377;52.182;5.398;2023-02-28T02:30:44;9.10;;;4.40;;
46651;SDS011;32377;52.182;5.398;2023-02-28T02:36:31;8.33;;;3.90;;
46651;SDS011;32377;52.182;5.398;2023-02-28T02:39:04;8.83;;;3.50;;
46651;SDS011;32377;52.182;5.398;2023-02-28T02:41:39;10.97;;;3.87;;
46651;SDS011;32377;52.182;5.398;2023-02-28T02:47:09;7.47;;;3.40;;
46651;SDS011;32377;52.182;5.398;2023-02-28T02:49:38;11.17;;;4.30;;
46651;SDS011;32377;52.182;5.398;2023-02-28T02:52:08;13.83;;;4.47;;
46651;SDS011;32377;52.182;5.398;2023-02-28T02:54:37;15.57;;;3.97;;
46651;SDS011;32377;52.182;5.398;2023-02-28T02:57:10;10.90;;;4.00;;
46651;SDS011;32377;52.182;5.398;2023-02-28T02:59:41;11.18;;;4.28;;
46651;SDS011;32377;52.182;5.398;2023-02-28T03:02:08;10.07;;;3.50;;
46651;SDS011;32377;52.182;5.398;2023-02-28T03:04:41;10.83;;;4.00;;
46651;SDS011;32377;52.182;5.398;2023-02-28T03:07:10;10.37;;;4.33;;
46651;SDS011;32377;52.182;5.398;2023-02-28T03:09:36;8.93;;;4.57;;
46651;SDS011;32377;52.182;5.398;2023-02-28T03:12:02;9.03;;;4.23;;
46651;SDS011;32377;52.182;5.398;2023-02-28T03:14:40;8.70;;;4.37;;
46651;SDS011;32377;52.182;5.398;2023-02-28T03:33:47;14.60;;;5.07;;
46651;SDS011;32377;52.182;5.398;2023-02-28T03:36:28;9.10;;;4.80;;
46651;SDS011;32377;52.182;5.398;2023-02-28T03:38:58;14.67;;;5.47;;
46651;SDS011;32377;52.182;5.398;2023-02-28T03:42:28;10.70;;;4.60;;
46651;SDS011;32377;52.182;5.398;2023-02-28T03:44:25;12.63;;;5.27;;
46651;SDS011;32377;52.182;5.398;2023-02-28T03:47:03;9.53;;;4.90;;
46651;SDS011;32377;52.182;5.398;2023-02-28T03:49:36;13.03;;;5.20;;
46651;SDS011;32377;52.182;5.398;2023-02-28T03:52:10;10.67;;;5.07;;
46651;SDS011;32377;52.182;5.398;2023-02-28T03:54:39;10.50;;;5.10;;
46651;SDS011;32377;52.182;5.398;2023-02-28T03:57:15;11.37;;;5.67;;
46651;SDS011;32377;52.182;5.398;2023-02-28T04:00:06;13.30;;;5.53;;
46651;SDS011;32377;52.182;5.398;2023-02-28T04:02:37;10.43;;;5.13;;
46651;SDS011;32377;52.182;5.398;2023-02-28T04:05:04;14.07;;;5.70;;
46651;SDS011;32377;52.182;5.398;2023-02-28T04:07:30;9.70;;;5.37;;
46651;SDS011;32377;52.182;5.398;2023-02-28T04:09:57;11.67;;;5.40;;
46651;SDS011;32377;52.182;5.398;2023-02-28T04:12:23;9.10;;;4.90;;
46651;SDS011;32377;52.182;5.398;2023-02-28T04:14:49;24.20;;;5.03;;
46651;SDS011;32377;52.182;5.398;2023-02-28T04:17:15;11.43;;;5.30;;
46651;SDS011;32377;52.182;5.398;2023-02-28T04:19:41;14.77;;;5.17;;
46651;SDS011;32377;52.182;5.398;2023-02-28T04:22:07;10.67;;;4.80;;
46651;SDS011;32377;52.182;5.398;2023-02-28T04:24:33;8.87;;;5.10;;
46651;SDS011;32377;52.182;5.398;2023-02-28T04:26:59;8.10;;;5.03;;
46651;SDS011;32377;52.182;5.398;2023-02-28T04:29:29;10.77;;;5.20;;
46651;SDS011;32377;52.182;5.398;2023-02-28T04:31:57;7.97;;;4.30;;
46651;SDS011;32377;52.182;5.398;2023-02-28T04:34:24;13.97;;;4.83;;
46651;SDS011;32377;52.182;5.398;2023-02-28T04:36:54;9.30;;;4.23;;
46651;SDS011;32377;52.182;5.398;2023-02-28T04:39:20;9.70;;;4.17;;
46651;SDS011;32377;52.182;5.398;2023-02-28T04:41:47;6.23;;;4.27;;
46651;SDS011;32377;52.182;5.398;2023-02-28T04:44:13;13.23;;;5.20;;
46651;SDS011;32377;52.182;5.398;2023-02-28T04:46:39;8.33;;;3.77;;
46651;SDS011;32377;52.182;5.398;2023-02-28T04:49:05;6.67;;;3.20;;
46651;SDS011;32377;52.182;5.398;2023-02-28T04:51:31;5.83;;;3.40;;
46651;SDS011;32377;52.182;5.398;2023-02-28T04:53:57;4.17;;;3.20;;
46651;SDS011;32377;52.182;5.398;2023-02-28T04:59:08;7.60;;;3.30;;
46651;SDS011;32377;52.182;5.398;2023-02-28T05:01:33;6.33;;;3.20;;
46651;SDS011;32377;52.182;5.398;2023-02-28T05:04:00;4.87;;;2.60;;
46651;SDS011;32377;52.182;5.398;2023-02-28T05:06:28;5.30;;;3.17;;
46651;SDS011;32377;52.182;5.398;2023-02-28T05:08:55;6.07;;;3.03;;
46651;SDS011;32377;52.182;5.398;2023-02-28T05:11:26;8.83;;;3.00;;
46651;SDS011;32377;52.182;5.398;2023-02-28T05:13:54;7.70;;;3.30;;
46651;SDS011;32377;52.182;5.398;2023-02-28T05:16:20;5.70;;;3.60;;
46651;SDS011;32377;52.182;5.398;2023-02-28T05:18:46;8.30;;;3.60;;
46651;SDS011;32377;52.182;5.398;2023-02-28T05:23:58;9.20;;;3.42;;
46651;SDS011;32377;52.182;5.398;2023-02-28T05:26:25;6.77;;;3.50;;
46651;SDS011;32377;52.182;5.398;2023-02-28T05:28:52;6.23;;;3.83;;
46651;SDS011;32377;52.182;5.398;2023-02-28T05:31:18;8.87;;;3.83;;
46651;SDS011;32377;52.182;5.398;2023-02-28T05:33:44;6.10;;;4.00;;
46651;SDS011;32377;52.182;5.398;2023-02-28T05:36:09;7.40;;;3.80;;
46651;SDS011;32377;52.182;5.398;2023-02-28T05:38:35;7.03;;;4.20;;
46651;SDS011;32377;52.182;5.398;2023-02-28T05:41:04;8.83;;;4.77;;
46651;SDS011;32377;52.182;5.398;2023-02-28T05:43:31;8.30;;;4.93;;
46651;SDS011;32377;52.182;5.398;2023-02-28T05:45:56;8.53;;;4.47;;
46651;SDS011;32377;52.182;5.398;2023-02-28T05:48:22;7.70;;;4.77;;
46651;SDS011;32377;52.182;5.398;2023-02-28T05:50:47;5.37;;;3.80;;
46651;SDS011;32377;52.182;5.398;2023-02-28T05:53:13;9.90;;;4.00;;
46651;SDS011;32377;52.182;5.398;2023-02-28T05:55:39;7.67;;;4.20;;
46651;SDS011;32377;52.182;5.398;2023-02-28T05:58:06;8.30;;;4.30;;
46651;SDS011;32377;52.182;5.398;2023-02-28T06:00:31;10.03;;;4.50;;
46651;SDS011;32377;52.182;5.398;2023-02-28T06:02:57;7.33;;;4.60;;
46651;SDS011;32377;52.182;5.398;2023-02-28T06:05:26;9.23;;;5.03;;
46651;SDS011;32377;52.182;5.398;2023-02-28T06:07:52;6.57;;;4.77;;
46651;SDS011;32377;52.182;5.398;2023-02-28T06:10:18;10.70;;;4.93;;
46651;SDS011;32377;52.182;5.398;2023-02-28T06:12:44;11.83;;;5.13;;
46651;SDS011;32377;52.182;5.398;2023-02-28T06:15:14;6.77;;;4.67;;
46651;SDS011;32377;52.182;5.398;2023-02-28T06:17:41;9.87;;;5.43;;
46651;SDS011;32377;52.182;5.398;2023-02-28T06:20:08;8.53;;;5.30;;
46651;SDS011;32377;52.182;5.398;2023-02-28T06:22:35;11.03;;;5.70;;
46651;SDS011;32377;52.182;5.398;2023-02-28T06:25:02;8.53;;;5.33;;
46651;SDS011;32377;52.182;5.398;2023-02-28T06:27:28;7.60;;;5.63;;
46651;SDS011;32377;52.182;5.398;2023-02-28T06:29:55;8.97;;;5.63;;
46651;SDS011;32377;52.182;5.398;2023-02-28T06:32:20;9.57;;;5.93;;
46651;SDS011;32377;52.182;5.398;2023-02-28T06:34:46;9.43;;;5.57;;
46651;SDS011;32377;52.182;5.398;2023-02-28T06:37:12;8.27;;;5.57;;
46651;SDS011;32377;52.182;5.398;2023-02-28T06:39:38;7.00;;;5.27;;
46651;SDS011;32377;52.182;5.398;2023-02-28T06:42:04;10.57;;;5.70;;
46651;SDS011;32377;52.182;5.398;2023-02-28T06:44:29;8.50;;;5.77;;
46651;SDS011;32377;52.182;5.398;2023-02-28T06:47:00;9.30;;;6.07;;
46651;SDS011;32377;52.182;5.398;2023-02-28T06:49:28;16.03;;;6.40;;
46651;SDS011;32377;52.182;5.398;2023-02-28T06:51:58;9.40;;;6.13;;
46651;SDS011;32377;52.182;5.398;2023-02-28T06:54:24;9.70;;;6.10;;
46651;SDS011;32377;52.182;5.398;2023-02-28T06:56:49;12.47;;;6.13;;
46651;SDS011;32377;52.182;5.398;2023-02-28T06:59:15;9.27;;;6.27;;
46651;SDS011;32377;52.182;5.398;2023-02-28T07:01:41;9.87;;;6.13;;
46651;SDS011;32377;52.182;5.398;2023-02-28T07:04:07;9.07;;;5.83;;
46651;SDS011;32377;52.182;5.398;2023-02-28T07:06:33;13.13;;;6.73;;
46651;SDS011;32377;52.182;5.398;2023-02-28T07:08:59;8.67;;;6.57;;
46651;SDS011;32377;52.182;5.398;2023-02-28T07:11:25;10.77;;;6.90;;
46651;SDS011;32377;52.182;5.398;2023-02-28T07:13:55;11.10;;;6.87;;
46651;SDS011;32377;52.182;5.398;2023-02-28T07:16:21;11.90;;;6.77;;
46651;SDS011;32377;52.182;5.398;2023-02-28T07:18:48;17.60;;;7.47;;
46651;SDS011;32377;52.182;5.398;2023-02-28T07:21:13;13.37;;;7.33;;
46651;SDS011;32377;52.182;5.398;2023-02-28T07:23:39;9.60;;;7.13;;
46651;SDS011;32377;52.182;5.398;2023-02-28T07:26:06;15.90;;;7.63;;
46651;SDS011;32377;52.182;5.398;2023-02-28T07:28:36;12.60;;;7.27;;
46651;SDS011;32377;52.182;5.398;2023-02-28T07:31:05;9.07;;;6.53;;
46651;SDS011;32377;52.182;5.398;2023-02-28T07:33:31;15.60;;;8.03;;
46651;SDS011;32377;52.182;5.398;2023-02-28T07:36:03;9.90;;;6.47;;
46651;SDS011;32377;52.182;5.398;2023-02-28T07:38:30;10.07;;;7.17;;
46651;SDS011;32377;52.182;5.398;2023-02-28T07:40:55;17.67;;;7.10;;
46651;SDS011;32377;52.182;5.398;2023-02-28T07:43:21;14.83;;;7.30;;
46651;SDS011;32377;52.182;5.398;2023-02-28T07:45:47;9.97;;;6.40;;
46651;SDS011;32377;52.182;5.398;2023-02-28T07:48:12;10.37;;;6.27;;
46651;SDS011;32377;52.182;5.398;2023-02-28T07:50:38;9.37;;;6.60;;
46651;SDS011;32377;52.182;5.398;2023-02-28T07:53:03;10.93;;;6.57;;
46651;SDS011;32377;52.182;5.398;2023-02-28T07:55:29;11.30;;;7.27;;
46651;SDS011;32377;52.182;5.398;2023-02-28T07:57:56;16.83;;;7.60;;
46651;SDS011;32377;52.182;5.398;2023-02-28T08:00:22;13.17;;;7.87;;
46651;SDS011;32377;52.182;5.398;2023-02-28T08:02:48;15.20;;;7.67;;
46651;SDS011;32377;52.182;5.398;2023-02-28T08:05:14;12.40;;;7.37;;
46651;SDS011;32377;52.182;5.398;2023-02-28T08:07:40;13.17;;;7.37;;
46651;SDS011;32377;52.182;5.398;2023-02-28T08:10:05;16.43;;;8.13;;
46651;SDS011;32377;52.182;5.398;2023-02-28T08:12:32;13.90;;;7.80;;
46651;SDS011;32377;52.182;5.398;2023-02-28T08:14:57;13.27;;;7.13;;
46651;SDS011;32377;52.182;5.398;2023-02-28T08:17:23;10.67;;;7.40;;
46651;SDS011;32377;52.182;5.398;2023-02-28T08:19:48;10.33;;;6.70;;
46651;SDS011;32377;52.182;5.398;2023-02-28T08:22:14;11.70;;;7.53;;
46651;SDS011;32377;52.182;5.398;2023-02-28T08:24:43;9.57;;;7.40;;
46651;SDS011;32377;52.182;5.398;2023-02-28T08:27:08;16.63;;;8.63;;
46651;SDS011;32377;52.182;5.398;2023-02-28T08:29:36;15.53;;;8.10;;
46651;SDS011;32377;52.182;5.398;2023-02-28T08:32:02;13.40;;;7.10;;
46651;SDS011;32377;52.182;5.398;2023-02-28T08:34:28;12.07;;;7.30;;
46651;SDS011;32377;52.182;5.398;2023-02-28T08:36:54;16.03;;;7.67;;
46651;SDS011;32377;52.182;5.398;2023-02-28T08:39:20;10.87;;;6.80;;
46651;SDS011;32377;52.182;5.398;2023-02-28T08:41:46;11.73;;;6.50;;
46651;SDS011;32377;52.182;5.398;2023-02-28T08:44:12;8.70;;;6.40;;
46651;SDS011;32377;52.182;5.398;2023-02-28T08:46:37;9.27;;;6.30;;
46651;SDS011;32377;52.182;5.398;2023-02-28T08:49:03;10.17;;;6.13;;
46651;SDS011;32377;52.182;5.398;2023-02-28T08:51:29;8.97;;;6.13;;
46651;SDS011;32377;52.182;5.398;2023-02-28T08:53:57;15.17;;;5.97;;
46651;SDS011;32377;52.182;5.398;2023-02-28T08:56:25;9.50;;;5.07;;
46651;SDS011;32377;52.182;5.398;2023-02-28T08:58:51;8.27;;;4.97;;
46651;SDS011;32377;52.182;5.398;2023-02-28T09:01:26;7.73;;;4.93;;
46651;SDS011;32377;52.182;5.398;2023-02-28T09:03:53;9.23;;;4.57;;
46651;SDS011;32377;52.182;5.398;2023-02-28T09:06:20;6.47;;;5.10;;
46651;SDS011;32377;52.182;5.398;2023-02-28T09:08:47;12.50;;;5.00;;
46651;SDS011;32377;52.182;5.398;2023-02-28T09:11:14;8.77;;;4.07;;
46651;SDS011;32377;52.182;5.398;2023-02-28T09:13:40;6.27;;;3.60;;
46651;SDS011;32377;52.182;5.398;2023-02-28T09:16:07;7.87;;;3.63;;
46651;SDS011;32377;52.182;5.398;2023-02-28T09:18:35;7.47;;;3.73;;
46651;SDS011;32377;52.182;5.398;2023-02-28T09:21:06;7.53;;;3.37;;
46651;SDS011;32377;52.182;5.398;2023-02-28T09:23:35;7.07;;;3.30;;
46651;SDS011;32377;52.182;5.398;2023-02-28T09:26:03;7.77;;;3.37;;
46651;SDS011;32377;52.182;5.398;2023-02-28T09:28:29;4.93;;;2.93;;
46651;SDS011;32377;52.182;5.398;2023-02-28T09:30:55;7.80;;;2.93;;
46651;SDS011;32377;52.182;5.398;2023-02-28T09:33:22;4.50;;;2.77;;
46651;SDS011;32377;52.182;5.398;2023-02-28T09:35:48;3.10;;;2.47;;
46651;SDS011;32377;52.182;5.398;2023-02-28T09:38:15;5.17;;;2.70;;
46651;SDS011;32377;52.182;5.398;2023-02-28T09:40:51;3.90;;;2.30;;
46651;SDS011;32377;52.182;5.398;2023-02-28T09:43:22;4.63;;;2.17;;
46651;SDS011;32377;52.182;5.398;2023-02-28T09:45:52;3.13;;;2.17;;
46651;SDS011;32377;52.182;5.398;2023-02-28T09:48:27;3.90;;;2.20;;
46651;SDS011;32377;52.182;5.398;2023-02-28T09:51:05;5.17;;;1.73;;
46651;SDS011;32377;52.182;5.398;2023-02-28T09:53:40;3.83;;;1.70;;
46651;SDS011;32377;52.182;5.398;2023-02-28T09:56:10;2.17;;;1.90;;
46651;SDS011;32377;52.182;5.398;2023-02-28T09:58:47;2.10;;;1.65;;
46651;SDS011;32377;52.182;5.398;2023-02-28T10:01:22;2.77;;;2.00;;
46651;SDS011;32377;52.182;5.398;2023-02-28T10:07:33;2.63;;;1.80;;
46651;SDS011;32377;52.182;5.398;2023-02-28T10:10:27;2.50;;;1.70;;
46651;SDS011;32377;52.182;5.398;2023-02-28T10:12:59;4.60;;;1.90;;
46651;SDS011;32377;52.182;5.398;2023-02-28T10:15:28;5.00;;;1.70;;
46651;SDS011;32377;52.182;5.398;2023-02-28T10:17:58;3.25;;;2.00;;
46651;SDS011;32377;52.182;5.398;2023-02-28T10:20:30;3.25;;;1.92;;
46651;SDS011;32377;52.182;5.398;2023-02-28T10:23:11;6.38;;;2.00;;
46651;SDS011;32377;52.182;5.398;2023-02-28T10:25:45;3.03;;;1.88;;
46651;SDS011;32377;52.182;5.398;2023-02-28T10:28:23;3.88;;;2.28;;
46651;SDS011;32377;52.182;5.398;2023-02-28T10:30:51;3.95;;;2.08;;
46651;SDS011;32377;52.182;5.398;2023-02-28T10:33:25;3.88;;;2.08;;
46651;SDS011;32377;52.182;5.398;2023-02-28T10:35:55;2.70;;;1.98;;
46651;SDS011;32377;52.182;5.398;2023-02-28T10:38:23;6.10;;;2.20;;
46651;SDS011;32377;52.182;5.398;2023-02-28T10:40:50;5.10;;;1.90;;
46651;SDS011;32377;52.182;5.398;2023-02-28T10:48:37;3.90;;;2.00;;
46651;SDS011;32377;52.182;5.398;2023-02-28T10:51:11;5.05;;;2.50;;
46651;SDS011;32377;52.182;5.398;2023-02-28T10:53:51;3.17;;;2.17;;
46651;SDS011;32377;52.182;5.398;2023-02-28T10:59:29;3.35;;;2.05;;
46651;SDS011;32377;52.182;5.398;2023-02-28T11:01:55;2.67;;;1.95;;
46651;SDS011;32377;52.182;5.398;2023-02-28T11:07:02;3.55;;;1.75;;
46651;SDS011;32377;52.182;5.398;2023-02-28T11:09:41;2.33;;;1.80;;
46651;SDS011;32377;52.182;5.398;2023-02-28T11:12:19;6.07;;;2.17;;
46651;SDS011;32377;52.182;5.398;2023-02-28T11:14:56;2.47;;;1.90;;
46651;SDS011;32377;52.182;5.398;2023-02-28T11:17:28;3.80;;;1.67;;
46651;SDS011;32377;52.182;5.398;2023-02-28T11:20:06;3.85;;;1.88;;
46651;SDS011;32377;52.182;5.398;2023-02-28T11:22:43;3.50;;;1.80;;
46651;SDS011;32377;52.182;5.398;2023-02-28T11:25:28;3.83;;;1.83;;
46651;SDS011;32377;52.182;5.398;2023-02-28T11:27:59;2.58;;;1.90;;
46651;SDS011;32377;52.182;5.398;2023-02-28T11:30:31;3.42;;;1.85;;
46651;SDS011;32377;52.182;5.398;2023-02-28T11:32:59;2.85;;;1.55;;
46651;SDS011;32377;52.182;5.398;2023-02-28T11:35:33;2.95;;;1.73;;
46651;SDS011;32377;52.182;5.398;2023-02-28T11:38:04;2.22;;;1.80;;
46651;SDS011;32377;52.182;5.398;2023-02-28T11:40:46;3.95;;;2.00;;
46651;SDS011;32377;52.182;5.398;2023-02-28T11:51:47;2.22;;;1.70;;
46651;SDS011;32377;52.182;5.398;2023-02-28T11:54:29;3.22;;;2.08;;
46651;SDS011;32377;52.182;5.398;2023-02-28T11:56:58;4.10;;;2.05;;
46651;SDS011;32377;52.182;5.398;2023-02-28T12:04:51;4.40;;;1.80;;
46651;SDS011;32377;52.182;5.398;2023-02-28T12:07:45;6.03;;;2.45;;
46651;SDS011;32377;52.182;5.398;2023-02-28T12:11:10;3.58;;;2.08;;
46651;SDS011;32377;52.182;5.398;2023-02-28T12:16:29;3.67;;;2.20;;
46651;SDS011;32377;52.182;5.398;2023-02-28T12:19:20;1.65;;;1.55;;
46651;SDS011;32377;52.182;5.398;2023-02-28T12:22:03;2.38;;;1.63;;
46651;SDS011;32377;52.182;5.398;2023-02-28T12:27:46;3.53;;;2.03;;
46651;SDS011;32377;52.182;5.398;2023-02-28T12:30:15;3.33;;;1.90;;
46651;SDS011;32377;52.182;5.398;2023-02-28T12:33:02;4.35;;;1.88;;
46651;SDS011;32377;52.182;5.398;2023-02-28T12:35:33;2.42;;;1.80;;
46651;SDS011;32377;52.182;5.398;2023-02-28T12:41:04;3.72;;;1.90;;
46651;SDS011;32377;52.182;5.398;2023-02-28T12:43:40;3.30;;;1.70;;
46651;SDS011;32377;52.182;5.398;2023-02-28T12:46:10;4.13;;;1.95;;
46651;SDS011;32377;52.182;5.398;2023-02-28T12:48:52;5.70;;;2.05;;
46651;SDS011;32377;52.182;5.398;2023-02-28T12:51:21;2.55;;;1.90;;
46651;SDS011;32377;52.182;5.398;2023-02-28T12:53:58;4.28;;;2.10;;
46651;SDS011;32377;52.182;5.398;2023-02-28T12:59:37;3.97;;;2.25;;
46651;SDS011;32377;52.182;5.398;2023-02-28T13:05:19;4.78;;;2.60;;
46651;SDS011;32377;52.182;5.398;2023-02-28T13:08:13;3.38;;;2.13;;
46651;SDS011;32377;52.182;5.398;2023-02-28T13:10:59;3.08;;;2.00;;
46651;SDS011;32377;52.182;5.398;2023-02-28T13:13:26;3.78;;;2.33;;
46651;SDS011;32377;52.182;5.398;2023-02-28T13:16:06;3.28;;;2.38;;
46651;SDS011;32377;52.182;5.398;2023-02-28T13:18:44;5.07;;;2.40;;
46651;SDS011;32377;52.182;5.398;2023-02-28T13:21:24;3.03;;;1.88;;
46651;SDS011;32377;52.182;5.398;2023-02-28T13:47:35;2.38;;;2.17;;
46651;SDS011;32377;52.182;5.398;2023-02-28T13:50:35;4.35;;;2.40;;
46651;SDS011;32377;52.182;5.398;2023-02-28T14:04:06;4.93;;;2.60;;
46651;SDS011;32377;52.182;5.398;2023-02-28T14:06:55;4.57;;;2.58;;
46651;SDS011;32377;52.182;5.398;2023-02-28T14:11:54;6.43;;;2.40;;
46651;SDS011;32377;52.182;5.398;2023-02-28T14:17:22;3.88;;;2.00;;
46651;SDS011;32377;52.182;5.398;2023-02-28T14:19:46;7.10;;;3.08;;
46651;SDS011;32377;52.182;5.398;2023-02-28T14:25:33;3.05;;;1.90;;
46651;SDS011;32377;52.182;5.398;2023-02-28T14:30:56;4.47;;;2.17;;
46651;SDS011;32377;52.182;5.398;2023-02-28T14:37:01;3.90;;;2.22;;
46651;SDS011;32377;52.182;5.398;2023-02-28T14:39:28;3.88;;;2.20;;
46651;SDS011;32377;52.182;5.398;2023-02-28T14:41:56;2.55;;;2.08;;
46651;SDS011;32377;52.182;5.398;2023-02-28T14:44:27;5.75;;;2.45;;
46651;SDS011;32377;52.182;5.398;2023-02-28T14:46:53;2.83;;;2.13;;
46651;SDS011;32377;52.182;5.398;2023-02-28T14:49:23;2.90;;;2.17;;
46651;SDS011;32377;52.182;5.398;2023-02-28T14:54:31;3.95;;;2.05;;
46651;SDS011;32377;52.182;5.398;2023-02-28T14:56:57;3.17;;;2.00;;
46651;SDS011;32377;52.182;5.398;2023-02-28T14:59:30;4.10;;;1.90;;
46651;SDS011;32377;52.182;5.398;2023-02-28T15:02:20;6.63;;;2.55;;
46651;SDS011;32377;52.182;5.398;2023-02-28T15:04:54;3.83;;;2.33;;
46651;SDS011;32377;52.182;5.398;2023-02-28T15:07:24;3.08;;;2.00;;
46651;SDS011;32377;52.182;5.398;2023-02-28T15:13:30;3.85;;;2.22;;
46651;SDS011;32377;52.182;5.398;2023-02-28T15:18:39;4.05;;;2.30;;
46651;SDS011;32377;52.182;5.398;2023-02-28T15:21:16;3.75;;;1.90;;
46651;SDS011;32377;52.182;5.398;2023-02-28T15:23:54;4.22;;;2.40;;
46651;SDS011;32377;52.182;5.398;2023-02-28T15:26:25;3.28;;;2.33;;
46651;SDS011;32377;52.182;5.398;2023-02-28T15:28:58;3.72;;;2.40;;
46651;SDS011;32377;52.182;5.398;2023-02-28T15:31:37;3.92;;;2.25;;
46651;SDS011;32377;52.182;5.398;2023-02-28T15:34:12;3.75;;;2.60;;
46651;SDS011;32377;52.182;5.398;2023-02-28T15:36:44;4.00;;;2.40;;
46651;SDS011;32377;52.182;5.398;2023-02-28T15:39:23;3.28;;;2.00;;
46651;SDS011;32377;52.182;5.398;2023-02-28T15:41:52;7.53;;;2.35;;
46651;SDS011;32377;52.182;5.398;2023-02-28T15:44:34;4.20;;;2.28;;
46651;SDS011;32377;52.182;5.398;2023-02-28T15:47:02;2.67;;;2.03;;
46651;SDS011;32377;52.182;5.398;2023-02-28T15:49:40;3.30;;;2.42;;
46651;SDS011;32377;52.182;5.398;2023-02-28T15:52:18;5.55;;;2.55;;
46651;SDS011;32377;52.182;5.398;2023-02-28T15:55:29;5.55;;;2.72;;
46651;SDS011;32377;52.182;5.398;2023-02-28T15:57:55;4.45;;;2.33;;
46651;SDS011;32377;52.182;5.398;2023-02-28T16:00:25;3.83;;;2.30;;
46651;SDS011;32377;52.182;5.398;2023-02-28T16:02:52;3.97;;;2.28;;
46651;SDS011;32377;52.182;5.398;2023-02-28T16:07:57;3.58;;;2.45;;
46651;SDS011;32377;52.182;5.398;2023-02-28T16:10:24;2.50;;;2.20;;
46651;SDS011;32377;52.182;5.398;2023-02-28T16:12:55;3.72;;;2.13;;
46651;SDS011;32377;52.182;5.398;2023-02-28T16:15:23;3.58;;;2.70;;
46651;SDS011;32377;52.182;5.398;2023-02-28T16:17:51;4.78;;;2.30;;
46651;SDS011;32377;52.182;5.398;2023-02-28T16:20:21;3.03;;;2.40;;
46651;SDS011;32377;52.182;5.398;2023-02-28T16:22:48;4.22;;;2.35;;
46651;SDS011;32377;52.182;5.398;2023-02-28T16:25:15;5.53;;;2.33;;
46651;SDS011;32377;52.182;5.398;2023-02-28T16:27:43;3.28;;;2.38;;
46651;SDS011;32377;52.182;5.398;2023-02-28T16:30:21;3.20;;;2.58;;
46651;SDS011;32377;52.182;5.398;2023-02-28T16:32:48;2.33;;;2.03;;
46651;SDS011;32377;52.182;5.398;2023-02-28T16:35:15;2.72;;;2.15;;
46651;SDS011;32377;52.182;5.398;2023-02-28T16:37:42;4.55;;;2.67;;
46651;SDS011;32377;52.182;5.398;2023-02-28T16:40:13;4.82;;;2.80;;
46651;SDS011;32377;52.182;5.398;2023-02-28T16:42:43;4.30;;;2.50;;
46651;SDS011;32377;52.182;5.398;2023-02-28T16:45:20;7.80;;;2.85;;
46651;SDS011;32377;52.182;5.398;2023-02-28T16:47:48;3.95;;;2.65;;
46651;SDS011;32377;52.182;5.398;2023-02-28T16:50:46;6.40;;;3.22;;
46651;SDS011;32377;52.182;5.398;2023-02-28T16:53:05;4.38;;;2.95;;
46651;SDS011;32377;52.182;5.398;2023-02-28T16:55:30;3.75;;;2.72;;
46651;SDS011;32377;52.182;5.398;2023-02-28T16:59:10;5.80;;;3.20;;
46651;SDS011;32377;52.182;5.398;2023-02-28T17:01:36;4.50;;;2.90;;
46651;SDS011;32377;52.182;5.398;2023-02-28T17:04:02;6.37;;;3.17;;
46651;SDS011;32377;52.182;5.398;2023-02-28T17:06:28;5.73;;;3.13;;
46651;SDS011;32377;52.182;5.398;2023-02-28T17:08:54;7.43;;;3.13;;
46651;SDS011;32377;52.182;5.398;2023-02-28T17:11:22;8.15;;;3.00;;
46651;SDS011;32377;52.182;5.398;2023-02-28T17:13:48;6.80;;;3.17;;
46651;SDS011;32377;52.182;5.398;2023-02-28T17:16:22;5.13;;;3.40;;
46651;SDS011;32377;52.182;5.398;2023-02-28T17:18:57;4.93;;;2.90;;
46651;SDS011;32377;52.182;5.398;2023-02-28T17:21:23;4.70;;;3.00;;
46651;SDS011;32377;52.182;5.398;2023-02-28T17:23:49;3.95;;;3.33;;
46651;SDS011;32377;52.182;5.398;2023-02-28T17:26:16;6.70;;;3.70;;
46651;SDS011;32377;52.182;5.398;2023-02-28T17:28:45;6.10;;;3.50;;